Time;durP1;ratioP1;P1;durP2;ratioP2;P2;SDS_P1;SDS_P2;PMS_P1;PMS_P2;Temp;Humidity;BMP_temperature;BMP_pressure;BME280_temperature;BME280_humidity;BME280_pressure;Samples;Min_cycle;Max_cycle;Signal;HPM_P1;HPM_P2
2022/08/07 00:01:06;;;;;;;0.65;0.60;;;;;;;29.57;38.96;99212.00;5091865;28;20048;-58
2022/08/07 00:03:32;;;;;;;0.80;0.60;;;;;;;29.57;39.33;99226.09;5091766;28;20093;-59
2022/08/07 00:05:59;;;;;;;2.17;0.57;;;;;;;29.58;39.35;99227.72;5091867;28;20052;-59
2022/08/07 00:08:24;;;;;;;1.05;0.60;;;;;;;29.57;39.10;99217.66;5091889;28;20048;-57
2022/08/07 00:10:50;;;;;;;0.68;0.57;;;;;;;29.58;39.19;99225.69;5091806;28;20406;-58
2022/08/07 00:13:17;;;;;;;1.25;0.70;;;;;;;29.58;39.26;99227.72;5091837;28;20072;-58
2022/08/07 00:15:43;;;;;;;0.60;0.50;;;;;;;29.58;39.26;99231.31;5091573;28;20131;-58
2022/08/07 00:18:09;;;;;;;0.93;0.60;;;;;;;29.56;39.21;99224.53;5091667;28;20135;-58
2022/08/07 00:20:36;;;;;;;1.10;0.50;;;;;;;29.58;39.35;99228.50;5090067;28;20062;-58
2022/08/07 00:23:07;;;;;;;1.50;0.68;;;;;;;29.58;39.09;99219.25;5091612;28;20087;-57
2022/08/07 00:25:34;;;;;;;1.00;0.70;;;;;;;29.56;39.32;99219.69;5091456;28;20051;-59
2022/08/07 00:27:59;;;;;;;0.90;0.60;;;;;;;29.58;39.10;99222.88;5089634;28;20449;-59
2022/08/07 00:30:26;;;;;;;0.98;0.60;;;;;;;29.57;39.50;99209.19;5091320;28;20050;-59
2022/08/07 00:32:51;;;;;;;1.00;0.60;;;;;;;29.59;39.01;99215.22;5091260;28;20071;-58
2022/08/07 00:35:17;;;;;;;1.00;0.60;;;;;;;29.57;39.40;99223.28;5091401;28;20040;-58
2022/08/07 00:37:43;;;;;;;1.02;0.70;;;;;;;29.57;39.27;99226.09;5091321;28;20458;-58
2022/08/07 00:40:09;;;;;;;3.13;0.60;;;;;;;29.58;39.20;99228.50;5091411;28;20495;-59
2022/08/07 00:42:35;;;;;;;1.13;0.63;;;;;;;29.59;39.32;99232.13;5091161;28;20056;-58
2022/08/07 00:45:01;;;;;;;0.57;0.50;;;;;;;29.56;39.41;99222.50;5091157;28;20043;-59
2022/08/07 00:47:26;;;;;;;1.15;0.65;;;;;;;29.57;39.35;99226.91;5091037;28;20319;-59
2022/08/07 00:49:51;;;;;;;0.40;0.40;;;;;;;29.58;39.27;99222.88;5091130;28;20048;-59
2022/08/07 00:52:17;;;;;;;0.82;0.60;;;;;;;29.59;39.26;99226.47;5091154;28;20127;-58
2022/08/07 00:54:42;;;;;;;1.05;0.70;;;;;;;29.59;39.36;99223.66;5091207;28;20047;-58
2022/08/07 00:57:09;;;;;;;0.65;0.50;;;;;;;29.58;39.14;99211.59;5091042;28;20040;-57
2022/08/07 00:59:38;;;;;;;1.10;0.68;;;;;;;29.59;39.31;99224.44;5090896;28;20064;-59
2022/08/07 01:02:07;;;;;;;1.00;0.60;;;;;;;29.58;39.52;99228.50;5090808;28;20131;-58
2022/08/07 01:04:33;;;;;;;1.75;0.68;;;;;;;29.59;39.50;99230.09;5090955;28;20040;-59
2022/08/07 01:06:58;;;;;;;1.00;0.60;;;;;;;29.57;39.31;99232.53;5090782;28;20409;-57
2022/08/07 01:09:25;;;;;;;0.80;0.60;;;;;;;29.58;39.42;99231.31;5090886;28;20076;-58
2022/08/07 01:11:51;;;;;;;1.17;0.60;;;;;;;29.57;39.21;99235.34;5091062;28;20131;-59
2022/08/07 01:14:19;;;;;;;0.90;0.57;;;;;;;29.58;39.28;99236.16;5090749;28;20040;-58
2022/08/07 01:16:44;;;;;;;0.85;0.50;;;;;;;29.57;39.17;99224.06;5090732;28;20052;-59
2022/08/07 01:19:10;;;;;;;0.90;0.63;;;;;;;29.58;39.54;99228.50;5090572;28;20480;-59
2022/08/07 01:21:36;;;;;;;1.02;0.73;;;;;;;29.59;39.34;99232.91;5090506;28;20423;-59
2022/08/07 01:24:02;;;;;;;0.95;0.60;;;;;;;29.58;39.20;99228.50;5090744;28;20483;-59
2022/08/07 01:26:28;;;;;;;0.98;0.60;;;;;;;29.58;39.59;99242.59;5090374;28;20110;-57
2022/08/07 01:28:54;;;;;;;0.50;0.47;;;;;;;29.58;39.20;99233.34;5090467;28;20056;-58
2022/08/07 01:31:26;;;;;;;1.08;0.70;;;;;;;29.57;39.11;99235.34;5090086;28;20141;-59
2022/08/07 01:33:52;;;;;;;;;;;;;;;29.64;39.10;99234.38;5090840;28;20523;-58
2022/08/07 01:36:17;;;;;;;0.70;0.60;;;;;;;29.63;39.55;99226.38;5090487;28;19947;-58
2022/08/07 01:38:43;;;;;;;0.82;0.60;;;;;;;29.59;39.20;99232.13;5090194;28;20415;-59
2022/08/07 01:41:10;;;;;;;0.73;0.52;;;;;;;29.58;39.34;99234.16;5090189;28;20040;-59
2022/08/07 01:43:35;;;;;;;1.50;0.65;;;;;;;29.55;39.60;99229.38;5090206;28;20043;-58
2022/08/07 01:46:01;;;;;;;0.60;0.55;;;;;;;29.57;39.39;99228.91;5090268;28;20044;-59
2022/08/07 01:48:27;;;;;;;0.75;0.50;;;;;;;29.57;39.35;99232.53;5090413;28;20415;-59
2022/08/07 01:50:57;;;;;;;0.95;0.60;;;;;;;29.58;39.32;99233.34;5090039;28;20048;-59
2022/08/07 01:53:26;;;;;;;1.27;0.75;;;;;;;29.57;39.36;99228.91;5089938;28;20078;-58
2022/08/07 01:55:57;;;;;;;1.75;0.73;;;;;;;29.58;39.37;99239.00;5089985;28;20097;-57
2022/08/07 01:58:29;;;;;;;1.00;0.70;;;;;;;29.57;39.47;99238.16;5090031;28;20105;-58
2022/08/07 02:00:57;;;;;;;;;;;;;;;29.64;39.31;99236.41;5090575;28;20040;-57
2022/08/07 02:03:23;;;;;;;0.88;0.70;;;;;;;29.63;39.37;99234.84;5089983;28;19923;-58
2022/08/07 02:06:01;;;;;;;0.80;0.60;;;;;;;29.57;39.51;99234.56;5089912;28;20052;-59
2022/08/07 02:08:29;;;;;;;0.98;0.57;;;;;;;29.58;39.49;99234.16;5089669;28;20040;-59
2022/08/07 02:10:58;;;;;;;1.05;0.70;;;;;;;29.60;39.28;99242.16;5089921;28;20075;-59
2022/08/07 02:13:27;;;;;;;2.60;0.65;;;;;;;29.59;39.22;99244.19;5089828;28;20097;-58
2022/08/07 02:15:55;;;;;;;0.60;0.60;;;;;;;29.60;39.65;99245.75;5089957;28;20496;-58
2022/08/07 02:18:21;;;;;;;1.10;0.70;;;;;;;29.60;39.37;99248.59;5089785;28;20114;-58
2022/08/07 02:20:51;;;;;;;0.80;0.60;;;;;;;29.60;39.41;99245.75;5089315;28;20067;-58
2022/08/07 02:23:18;;;;;;;0.88;0.60;;;;;;;29.61;39.25;99238.09;5089716;28;20127;-59
2022/08/07 02:25:45;;;;;;;0.88;0.57;;;;;;;29.62;39.56;99245.31;5089652;28;20079;-58
2022/08/07 02:28:13;;;;;;;0.93;0.60;;;;;;;29.60;39.16;99240.13;5089609;28;20040;-59
2022/08/07 02:30:41;;;;;;;0.70;0.60;;;;;;;29.63;39.13;99237.66;5089731;28;20097;-59
2022/08/07 02:33:08;;;;;;;0.63;0.50;;;;;;;29.65;39.33;99240.81;5089614;28;20396;-58
2022/08/07 02:35:35;;;;;;;1.30;0.80;;;;;;;29.63;39.54;99229.19;5089472;28;20097;-59
2022/08/07 02:38:03;;;;;;;0.52;0.47;;;;;;;29.63;39.22;99232.00;5089618;28;20036;-58
2022/08/07 02:40:30;;;;;;;0.75;0.60;;;;;;;29.66;39.14;99231.16;5089495;28;20449;-59
2022/08/07 02:42:57;;;;;;;0.80;0.55;;;;;;;29.66;39.51;99225.50;5089197;28;20072;-57
2022/08/07 02:45:26;;;;;;;0.75;0.60;;;;;;;29.64;39.07;99230.78;5088686;28;20381;-58
2022/08/07 02:47:52;;;;;;;0.80;0.50;;;;;;;29.67;39.28;99235.56;5089191;28;20219;-58
2022/08/07 02:50:18;;;;;;;0.70;0.50;;;;;;;29.66;39.05;99231.16;5089244;28;20112;-58
2022/08/07 02:53:05;;;;;;;0.98;0.60;;;;;;;29.67;39.19;99224.28;5089087;28;20059;-59
2022/08/07 02:55:36;;;;;;;0.50;0.50;;;;;;;29.68;39.57;99231.50;5089359;28;20044;-58
2022/08/07 02:58:06;;;;;;;1.02;0.70;;;;;;;29.69;39.38;99224.63;5089232;28;20050;-59
2022/08/07 03:00:34;;;;;;;1.05;0.60;;;;;;;29.63;39.15;99217.91;5089230;28;20044;-58
2022/08/07 03:03:01;;;;;;;1.00;0.70;;;;;;;29.68;39.30;99226.66;5089033;28;20046;-59
2022/08/07 03:05:27;;;;;;;0.73;0.60;;;;;;;29.67;39.49;99227.09;5089348;28;20143;-58
2022/08/07 03:07:54;;;;;;;0.98;0.65;;;;;;;29.67;39.19;99229.91;5089062;28;20465;-59
2022/08/07 03:10:21;;;;;;;0.93;0.70;;;;;;;29.66;39.40;99222.69;5088982;28;20110;-59
2022/08/07 03:12:48;;;;;;;0.90;0.55;;;;;;;29.67;39.41;99225.06;5088962;28;20051;-59
2022/08/07 03:15:15;;;;;;;0.77;0.52;;;;;;;29.68;39.36;99223.84;5089200;28;20044;-59
2022/08/07 03:17:41;;;;;;;0.73;0.60;;;;;;;29.67;39.50;99221.47;5089023;28;20097;-58
2022/08/07 03:20:07;;;;;;;0.77;0.60;;;;;;;29.69;39.58;99230.25;5088849;28;20128;-59
2022/08/07 03:22:33;;;;;;;0.77;0.60;;;;;;;29.69;39.40;99230.25;5088865;28;20043;-58
2022/08/07 03:24:59;;;;;;;0.70;0.60;;;;;;;29.68;39.35;99237.94;5089064;28;20044;-58
2022/08/07 03:27:26;;;;;;;0.90;0.60;;;;;;;29.68;39.12;99229.47;5088667;28;20067;-57
2022/08/07 03:29:51;;;;;;;0.73;0.50;;;;;;;29.70;39.15;99237.47;5088988;28;20040;-57
2022/08/07 03:32:39;;;;;;;0.70;0.50;;;;;;;29.69;39.11;99222.59;5088842;28;20036;-58
2022/08/07 03:35:11;;;;;;;1.00;0.60;;;;;;;29.68;39.20;99220.22;5088865;28;20062;-58
2022/08/07 03:37:38;;;;;;;0.90;0.57;;;;;;;29.70;39.10;99224.16;5088717;28;20064;-58
2022/08/07 03:40:06;;;;;;;1.02;0.70;;;;;;;29.70;39.14;99229.81;5088697;28;20044;-58
2022/08/07 03:42:34;;;;;;;0.70;0.55;;;;;;;29.69;39.41;99222.59;5088475;28;20071;-58
2022/08/07 03:44:59;;;;;;;0.90;0.60;;;;;;;29.69;39.33;99221.81;5088804;28;20460;-57
2022/08/07 03:47:28;;;;;;;0.85;0.63;;;;;;;29.68;39.20;99226.66;5088662;28;20075;-58
2022/08/07 03:49:55;;;;;;;0.38;0.38;;;;;;;29.69;39.42;99222.59;5088550;28;20052;-58
2022/08/07 03:52:24;;;;;;;1.00;0.60;;;;;;;29.70;39.38;99223.38;5088568;28;20044;-58
2022/08/07 03:54:49;;;;;;;1.05;0.63;;;;;;;29.70;39.07;99217.75;5089062;28;20419;-59
2022/08/07 03:57:15;;;;;;;0.52;0.50;;;;;;;29.67;39.35;99219.44;5091956;28;20127;-58
2022/08/07 03:59:42;;;;;;;0.60;0.60;;;;;;;29.71;39.39;99222.16;5092034;28;20126;-59
2022/08/07 04:02:07;;;;;;;0.60;0.60;;;;;;;29.70;39.38;99223.38;5088847;28;20088;-59
2022/08/07 04:04:33;;;;;;;1.05;0.65;;;;;;;29.69;38.95;99213.34;5091874;28;20070;-58
2022/08/07 04:06:59;;;;;;;0.80;0.57;;;;;;;29.70;39.06;99224.16;5091983;28;20075;-58
2022/08/07 04:09:27;;;;;;;0.93;0.60;;;;;;;29.70;39.41;99224.16;5091822;28;20496;-58
2022/08/07 04:11:54;;;;;;;0.95;0.60;;;;;;;29.71;39.43;99219.31;5091732;28;20047;-58
2022/08/07 04:14:20;;;;;;;0.70;0.60;;;;;;;29.69;39.30;99219.78;5091803;28;20036;-58
2022/08/07 04:16:47;;;;;;;1.20;0.60;;;;;;;29.69;39.30;99219.78;5091585;28;20063;-59
2022/08/07 04:19:13;;;;;;;0.82;0.70;;;;;;;29.72;39.49;99220.91;5091722;28;20184;-59
2022/08/07 04:21:39;;;;;;;0.60;0.50;;;;;;;29.70;38.94;99224.16;5091235;28;20065;-58
2022/08/07 04:24:09;;;;;;;0.65;0.50;;;;;;;29.70;39.43;99221.34;5091478;28;20051;-58
2022/08/07 04:26:36;;;;;;;0.57;0.50;;;;;;;29.72;39.09;99220.91;5091443;28;20064;-58
2022/08/07 04:29:02;;;;;;;0.90;0.40;;;;;;;29.71;38.86;99222.16;5091165;28;20491;-58
2022/08/07 04:31:28;;;;;;;0.88;0.60;;;;;;;29.71;39.13;99222.16;5091565;28;20037;-58
2022/08/07 04:33:54;;;;;;;0.93;0.50;;;;;;;29.72;39.25;99229.38;5091300;28;20044;-59
2022/08/07 04:36:19;;;;;;;0.50;0.50;;;;;;;29.69;39.12;99224.63;5091354;28;20572;-58
2022/08/07 04:38:45;;;;;;;0.98;0.63;;;;;;;29.70;39.03;99229.03;5091261;28;20052;-58
2022/08/07 04:41:10;;;;;;;1.00;0.60;;;;;;;29.71;39.20;99237.03;5091186;28;20044;-58
2022/08/07 04:43:37;;;;;;;1.23;0.60;;;;;;;29.72;39.01;99244.28;5091191;28;20048;-59
2022/08/07 04:46:36;;;;;;;0.80;0.60;;;;;;;29.71;39.41;99245.50;5091074;28;20048;-59
2022/08/07 04:49:20;;;;;;;1.02;0.50;;;;;;;29.72;38.90;99249.09;5091154;28;20530;-58
2022/08/07 04:52:03;;;;;;;0.63;0.50;;;;;;;29.70;39.22;99249.53;5091101;28;20048;-58
2022/08/07 04:54:40;;;;;;;0.80;0.63;;;;;;;29.70;39.48;99248.75;5089084;28;20052;-58
2022/08/07 04:57:31;;;;;;;0.85;0.60;;;;;;;29.70;39.02;99252.38;5091179;28;20487;-58
2022/08/07 05:00:02;;;;;;;0.80;0.60;;;;;;;29.69;39.11;99261.28;5089342;28;20051;-57
2022/08/07 05:02:57;;;;;;;0.93;0.70;;;;;;;29.71;39.44;99267.25;5090925;28;20073;-58
2022/08/07 05:05:49;;;;;;;0.57;0.52;;;;;;;29.70;39.29;99269.28;5089099;28;20105;-58
2022/08/07 05:08:19;;;;;;;0.93;0.55;;;;;;;29.70;39.14;99268.50;5090033;28;20110;-58
2022/08/07 05:10:49;;;;;;;0.95;0.70;;;;;;;29.71;39.32;99275.72;5090662;28;20051;-57
2022/08/07 05:13:22;;;;;;;0.80;0.50;;;;;;;29.68;39.46;99276.59;5090743;28;20517;-57
2022/08/07 05:15:51;;;;;;;1.30;0.45;;;;;;;29.71;38.94;99278.53;5090845;28;20052;-58
2022/08/07 05:18:26;;;;;;;0.88;0.65;;;;;;;29.70;39.50;99280.56;5090648;28;20056;-59
2022/08/07 05:20:58;;;;;;;0.70;0.60;;;;;;;29.71;39.17;99275.72;5090472;28;20044;-59
2022/08/07 05:23:33;;;;;;;0.52;0.50;;;;;;;29.71;39.01;99281.34;5090716;28;20127;-58
2022/08/07 05:26:01;;;;;;;0.90;0.60;;;;;;;29.71;39.12;99279.31;5090654;28;20050;-57
2022/08/07 05:28:28;;;;;;;1.15;0.50;;;;;;;29.67;39.03;99275.81;5090646;28;20051;-58
2022/08/07 05:30:57;;;;;;;0.85;0.60;;;;;;;29.71;39.03;99282.13;5090567;28;20047;-58
2022/08/07 05:33:22;;;;;;;0.90;0.70;;;;;;;29.72;38.97;99294.22;5090545;28;20040;-58
2022/08/07 05:35:50;;;;;;;0.73;0.50;;;;;;;29.70;39.08;99291.03;5090594;28;20040;-57
2022/08/07 05:38:16;;;;;;;0.70;0.50;;;;;;;29.72;39.15;99288.56;5090422;28;20044;-58
2022/08/07 05:40:42;;;;;;;0.65;0.50;;;;;;;29.72;38.97;99288.56;5090057;28;20532;-59
2022/08/07 05:43:08;;;;;;;0.80;0.60;;;;;;;29.70;39.07;99296.69;5089981;28;20066;-57
2022/08/07 05:45:34;;;;;;;0.70;0.57;;;;;;;29.72;39.06;99295.03;5090260;28;20044;-58
2022/08/07 05:48:02;;;;;;;0.50;0.50;;;;;;;29.71;39.42;99301.88;5090210;28;20131;-59
2022/08/07 05:50:30;;;;;;;0.82;0.52;;;;;;;29.72;39.33;99302.66;5090122;28;20427;-58
2022/08/07 05:52:56;;;;;;;0.90;0.65;;;;;;;29.73;39.26;99309.91;5090046;28;20045;-58
2022/08/07 05:55:22;;;;;;;1.17;0.57;;;;;;;29.73;38.99;99307.09;5090039;28;20412;-59
2022/08/07 05:57:49;;;;;;;0.82;0.70;;;;;;;29.72;39.47;99306.31;5089919;28;20101;-58
2022/08/07 06:00:15;;;;;;;0.98;0.60;;;;;;;29.72;39.41;99306.31;5090083;28;20052;-58
2022/08/07 06:02:46;;;;;;;0.50;0.43;;;;;;;29.72;39.15;99311.94;5090076;28;20052;-58
2022/08/07 06:05:14;;;;;;;0.98;0.70;;;;;;;29.73;39.04;99309.91;5090163;28;20040;-58
2022/08/07 06:07:40;;;;;;;1.25;0.60;;;;;;;29.72;39.08;99299.84;5089867;28;20044;-59
2022/08/07 06:10:08;;;;;;;0.93;0.65;;;;;;;29.72;39.44;99305.47;5089993;28;20063;-58
2022/08/07 06:12:34;;;;;;;0.50;0.50;;;;;;;29.70;39.18;99300.28;5089865;28;20389;-59
2022/08/07 06:15:00;;;;;;;0.70;0.60;;;;;;;29.72;39.26;99303.50;5089858;28;20548;-59
2022/08/07 06:17:26;;;;;;;1.05;0.70;;;;;;;29.73;39.55;99301.47;5089793;28;20047;-58
2022/08/07 06:19:52;;;;;;;1.23;0.60;;;;;;;29.71;39.12;99303.91;5089956;28;20048;-59
2022/08/07 06:22:18;;;;;;;0.70;0.60;;;;;;;29.71;39.42;99307.50;5089460;28;20051;-57
2022/08/07 06:24:45;;;;;;;0.57;0.40;;;;;;;29.72;39.50;99300.66;5089668;28;20044;-58
2022/08/07 06:27:22;;;;;;;0.80;0.52;;;;;;;29.72;39.39;99300.66;5089696;28;20064;-58
2022/08/07 06:29:48;;;;;;;0.90;0.70;;;;;;;29.73;39.08;99301.47;5089721;28;20128;-58
2022/08/07 06:32:13;;;;;;;0.93;0.70;;;;;;;29.73;39.05;99302.25;5089815;28;20780;-58
2022/08/07 06:34:38;;;;;;;0.80;0.60;;;;;;;29.71;39.21;99292.63;5089586;28;20067;-57
2022/08/07 06:37:04;;;;;;;0.68;0.50;;;;;;;29.73;38.96;99298.63;5089700;28;20177;-58
2022/08/07 06:39:31;;;;;;;0.88;0.68;;;;;;;29.74;39.22;99303.03;5089587;28;20051;-59
2022/08/07 06:42:05;;;;;;;0.98;0.57;;;;;;;29.74;39.38;99288.94;5089352;28;20076;-59
2022/08/07 06:44:32;;;;;;;1.02;0.60;;;;;;;29.74;39.27;99291.75;5089235;28;20099;-59
2022/08/07 06:46:57;;;;;;;0.73;0.60;;;;;;;29.72;39.41;99289.38;5089412;28;20131;-59
2022/08/07 06:49:23;;;;;;;0.82;0.70;;;;;;;29.73;39.32;99293.00;5089109;28;20119;-58
2022/08/07 06:51:50;;;;;;;0.70;0.60;;;;;;;29.72;39.17;99292.22;5089436;28;20036;-58
2022/08/07 06:54:17;;;;;;;0.73;0.50;;;;;;;29.72;39.47;99292.22;5089460;28;21119;-59
2022/08/07 06:56:46;;;;;;;0.98;0.60;;;;;;;29.72;38.98;99280.09;5089202;28;20130;-59
2022/08/07 06:59:32;;;;;;;0.68;0.60;;;;;;;29.72;39.43;99280.94;5089182;28;20124;-59
2022/08/07 07:01:59;;;;;;;0.57;0.50;;;;;;;29.73;39.46;99285.34;5088898;28;20085;-58
2022/08/07 07:04:25;;;;;;;0.70;0.57;;;;;;;29.71;39.29;99273.69;5089263;28;20048;-58
2022/08/07 07:06:52;;;;;;;0.85;0.60;;;;;;;29.73;39.57;99278.91;5089226;28;20097;-59
2022/08/07 07:09:26;;;;;;;0.80;0.60;;;;;;;29.73;39.55;99284.53;5089204;28;20073;-59
2022/08/07 07:12:17;;;;;;;0.65;0.50;;;;;;;29.74;39.55;99286.13;5089127;28;20079;-59
2022/08/07 07:14:43;;;;;;;0.55;0.52;;;;;;;29.74;39.24;99286.91;5088979;28;20046;-59
2022/08/07 07:17:17;;;;;;;0.70;0.60;;;;;;;29.72;39.25;99278.13;5088891;28;20123;-59
2022/08/07 07:19:47;;;;;;;1.17;0.70;;;;;;;29.73;39.18;99282.50;5088898;28;20052;-58
2022/08/07 07:22:14;;;;;;;0.75;0.50;;;;;;;29.73;39.10;99278.91;5088702;28;20393;-58
2022/08/07 07:24:41;;;;;;;1.05;0.73;;;;;;;29.74;39.62;99281.28;5088625;28;20076;-58
2022/08/07 07:27:09;;;;;;;0.98;0.60;;;;;;;29.71;39.26;99268.03;5088910;28;20093;-58
2022/08/07 07:29:42;;;;;;;0.57;0.47;;;;;;;29.72;39.65;99275.28;5089148;28;20039;-59
2022/08/07 07:32:11;;;;;;;0.95;0.65;;;;;;;29.73;39.30;99273.25;5092421;28;20063;-58
2022/08/07 07:34:42;;;;;;;0.50;0.50;;;;;;;29.73;39.62;99267.63;5092381;28;20055;-59
2022/08/07 07:37:10;;;;;;;0.40;0.40;;;;;;;29.72;39.49;99271.66;5092375;28;20397;-58
2022/08/07 07:39:37;;;;;;;0.70;0.52;;;;;;;29.72;39.54;99264.00;5092401;28;20381;-58
2022/08/07 07:42:04;;;;;;;0.93;0.60;;;;;;;29.72;39.59;99261.19;5091996;28;20055;-59
2022/08/07 07:44:31;;;;;;;2.30;0.60;;;;;;;29.73;39.33;99262.00;5092263;28;20428;-59
2022/08/07 07:46:59;;;;;;;0.52;0.40;;;;;;;29.74;39.53;99257.94;5092232;28;20554;-58
2022/08/07 07:49:27;;;;;;;0.50;0.50;;;;;;;29.72;39.44;99258.38;5073788;28;20047;-59
2022/08/07 07:51:56;;;;;;;1.00;0.70;;;;;;;29.71;39.75;99253.16;5092246;28;20054;-58
2022/08/07 07:54:23;;;;;;;0.57;0.50;;;;;;;29.69;39.78;99245.16;5091917;28;20047;-58
2022/08/07 07:56:51;;;;;;;1.13;0.70;;;;;;;29.72;39.39;99251.91;5091808;28;20097;-59
2022/08/07 07:59:18;;;;;;;0.70;0.50;;;;;;;29.72;39.35;99254.75;5091917;28;20060;-59
2022/08/07 08:01:47;;;;;;;0.85;0.70;;;;;;;29.71;39.46;99251.13;5091932;28;20097;-58
2022/08/07 08:04:14;;;;;;;1.05;0.70;;;;;;;29.70;39.73;99249.53;5091942;28;20040;-58
2022/08/07 08:06:42;;;;;;;0.60;0.50;;;;;;;29.67;39.57;99239.16;5091862;28;20048;-58
2022/08/07 08:09:09;;;;;;;0.80;0.47;;;;;;;29.68;39.67;99237.13;5091779;28;20047;-57
2022/08/07 08:11:36;;;;;;;1.27;0.70;;;;;;;29.67;39.53;99241.97;5091596;28;20059;-59
2022/08/07 08:14:02;;;;;;;0.70;0.60;;;;;;;29.68;39.58;99248.41;5091721;28;20052;-58
2022/08/07 08:16:45;;;;;;;0.75;0.60;;;;;;;29.66;39.72;99234.75;5091827;28;20426;-59
2022/08/07 08:19:17;;;;;;;0.75;0.47;;;;;;;29.67;39.65;99233.53;5091749;28;20044;-59
2022/08/07 08:27:23;;;;;;;0.57;0.57;;;;;;;29.68;39.79;99228.69;5091642;28;20059;-58
2022/08/07 08:29:53;;;;;;;0.80;0.45;;;;;;;29.66;39.77;99222.69;5089392;28;20059;-57
2022/08/07 08:32:22;;;;;;;0.75;0.60;;;;;;;29.66;39.66;99222.69;5091533;28;20056;-58
2022/08/07 08:34:49;;;;;;;0.95;0.60;;;;;;;29.66;39.68;99217.84;5091229;28;20100;-58
2022/08/07 08:37:16;;;;;;;1.02;0.68;;;;;;;29.65;39.86;99216.25;5091143;28;20040;-58
2022/08/07 08:39:43;;;;;;;0.90;0.60;;;;;;;29.67;39.68;99224.28;5091194;28;20162;-58
2022/08/07 08:42:14;;;;;;;0.77;0.60;;;;;;;29.66;39.95;99220.66;5089966;28;20094;-59
2022/08/07 08:44:56;;;;;;;0.65;0.60;;;;;;;29.67;39.82;99221.47;5091162;28;20098;-58
2022/08/07 08:47:54;;;;;;;0.73;0.70;;;;;;;29.69;39.75;99216.16;5091213;28;20261;-59
2022/08/07 08:50:27;;;;;;;0.90;0.60;;;;;;;29.69;39.93;99216.97;5091395;28;20484;-59
2022/08/07 08:53:02;;;;;;;0.80;0.57;;;;;;;29.69;39.62;99219.78;5091127;28;20139;-58
2022/08/07 08:55:43;;;;;;;1.17;0.68;;;;;;;29.68;39.89;99220.22;5090970;28;20127;-58
2022/08/07 08:58:14;;;;;;;0.85;0.70;;;;;;;29.68;39.86;99218.19;5091234;28;20097;-59
2022/08/07 09:00:44;;;;;;;0.65;0.50;;;;;;;29.69;40.04;99213.34;5090974;28;20127;-58
2022/08/07 09:03:29;;;;;;;0.45;0.45;;;;;;;29.66;40.06;99212.22;5072831;28;20392;-59
2022/08/07 09:06:07;;;;;;;1.83;0.77;;;;;;;29.66;39.87;99215.03;5090827;28;20047;-58
2022/08/07 09:08:38;;;;;;;0.68;0.60;;;;;;;29.71;39.96;99220.13;5091051;28;20048;-58
2022/08/07 09:11:03;;;;;;;0.75;0.45;;;;;;;29.70;40.01;99214.94;5090819;28;20143;-57
2022/08/07 09:13:36;;;;;;;1.10;0.70;;;;;;;29.71;39.78;99219.31;5090674;28;20126;-58
2022/08/07 09:16:08;;;;;;;0.73;0.60;;;;;;;29.70;39.67;99212.91;5089125;28;20070;-58
2022/08/07 09:19:11;;;;;;;0.88;0.68;;;;;;;29.72;39.67;99209.63;5090751;28;20044;-57
2022/08/07 09:21:48;;;;;;;0.63;0.60;;;;;;;29.71;39.82;99208.84;5055991;28;20048;-58
2022/08/07 09:24:38;;;;;;;0.93;0.65;;;;;;;29.71;39.69;99203.19;5090649;28;20040;-57
2022/08/07 09:27:21;;;;;;;1.02;0.68;;;;;;;29.70;39.80;99203.66;5090690;28;20131;-58
2022/08/07 09:29:47;;;;;;;1.23;0.75;;;;;;;29.71;39.58;99208.84;5090667;28;20040;-59
2022/08/07 09:32:39;;;;;;;0.63;0.60;;;;;;;29.72;39.61;99204.00;5090703;28;20054;-58
2022/08/07 09:35:37;;;;;;;0.75;0.55;;;;;;;29.72;39.61;99204.00;5070938;28;20784;-59
2022/08/07 09:38:12;;;;;;;0.65;0.57;;;;;;;29.72;39.71;99199.19;5089640;28;20457;-59
2022/08/07 09:41:09;;;;;;;0.63;0.50;;;;;;;29.72;40.00;99196.34;5090298;28;20036;-58
2022/08/07 09:43:52;;;;;;;0.90;0.80;;;;;;;29.73;39.57;99194.31;5088808;28;20059;-59
2022/08/07 09:46:24;;;;;;;0.70;0.55;;;;;;;29.73;39.63;99189.47;5088363;28;20116;-59
2022/08/07 09:49:27;;;;;;;0.95;0.63;;;;;;;29.74;39.67;99187.44;5090299;28;20115;-58
2022/08/07 09:52:03;;;;;;;0.50;0.50;;;;;;;29.74;39.94;99193.88;5090075;28;20055;-57
2022/08/07 09:54:38;;;;;;;0.80;0.60;;;;;;;29.74;39.54;99184.63;5088287;28;20408;-59
2022/08/07 09:57:22;;;;;;;0.50;0.50;;;;;;;29.73;39.83;99183.84;5090222;28;20047;-58
2022/08/07 10:00:15;;;;;;;1.67;0.70;;;;;;;29.75;39.73;99183.41;5090030;28;20123;-58
2022/08/07 10:02:49;;;;;;;1.05;0.70;;;;;;;29.75;39.92;99180.56;5089862;28;20040;-59
2022/08/07 10:05:52;;;;;;;0.93;0.70;;;;;;;29.74;40.06;99184.63;5089855;28;20051;-59
2022/08/07 10:08:36;;;;;;;;;;;;;;;29.80;39.55;99171.59;5089167;28;20051;-59
2022/08/07 10:11:09;;;;;;;0.45;0.40;;;;;;;29.77;39.94;99172.47;5089946;28;19994;-59
2022/08/07 10:13:47;;;;;;;1.05;0.60;;;;;;;29.73;39.64;99171.78;5089693;28;20116;-58
2022/08/07 10:16:37;;;;;;;0.75;0.57;;;;;;;29.74;39.58;99159.25;5089716;28;20056;-58
2022/08/07 10:19:30;;;;;;;0.80;0.60;;;;;;;29.75;40.09;99163.66;5089777;28;20118;-57
2022/08/07 10:22:17;;;;;;;0.77;0.60;;;;;;;29.75;39.90;99153.16;5089200;28;20048;-57
2022/08/07 10:25:05;;;;;;;0.93;0.60;;;;;;;29.76;40.05;99160.38;5089839;28;20450;-58
2022/08/07 10:27:58;;;;;;;0.55;0.50;;;;;;;29.76;40.04;99151.13;5089633;28;20040;-58
2022/08/07 10:30:27;;;;;;;0.95;0.60;;;;;;;29.73;39.86;99143.59;5089739;28;20044;-58
2022/08/07 10:33:17;;;;;;;0.77;0.60;;;;;;;29.74;40.21;99147.97;5087934;28;20188;-58
2022/08/07 10:35:58;;;;;;;1.02;0.70;;;;;;;29.76;39.91;99142.69;5089439;28;20085;-58
2022/08/07 10:38:42;;;;;;;0.70;0.60;;;;;;;29.77;39.76;99149.91;5089453;28;20040;-58
2022/08/07 10:41:15;;;;;;;0.80;0.60;;;;;;;29.76;40.18;99134.22;5088298;28;20411;-58
2022/08/07 10:44:07;;;;;;;0.88;0.63;;;;;;;29.75;40.10;99135.47;5089582;28;20079;-58
2022/08/07 10:47:09;;;;;;;0.73;0.60;;;;;;;29.75;39.70;99136.25;5089311;28;20044;-57
2022/08/07 10:49:43;;;;;;;0.95;0.70;;;;;;;29.76;40.18;99137.03;5088733;28;20477;-58
2022/08/07 10:52:22;;;;;;;0.90;0.70;;;;;;;29.75;40.07;99124.97;5089310;28;20044;-59
2022/08/07 10:54:59;;;;;;;0.75;0.60;;;;;;;29.77;40.08;99130.94;5089497;28;20120;-58
2022/08/07 10:57:46;;;;;;;0.80;0.70;;;;;;;29.75;39.94;99127.00;5087312;28;20488;-58
2022/08/07 11:00:17;;;;;;;0.85;0.60;;;;;;;29.77;39.97;99124.53;5089343;28;20048;-58
2022/08/07 11:02:55;;;;;;;0.70;0.60;;;;;;;29.76;40.10;99126.56;5089111;28;20056;-58
2022/08/07 11:05:31;;;;;;;1.13;0.60;;;;;;;29.74;40.24;99116.97;5090555;28;20075;-58
2022/08/07 11:08:21;;;;;;;0.55;0.50;;;;;;;29.78;39.93;99123.28;5092850;28;20159;-58
2022/08/07 11:11:26;;;;;;;1.05;0.70;;;;;;;29.77;40.25;99122.50;5092802;28;20051;-58
2022/08/07 11:13:58;;;;;;;0.60;0.60;;;;;;;29.77;39.90;99110.44;5090927;28;20420;-58
2022/08/07 11:16:33;;;;;;;0.60;0.50;;;;;;;29.77;39.85;99114.03;5092934;28;20048;-59
2022/08/07 11:19:38;;;;;;;1.02;0.68;;;;;;;29.77;39.85;99110.44;5092981;28;20132;-59
2022/08/07 11:22:33;;;;;;;0.93;0.68;;;;;;;29.78;39.99;99106.38;5092391;28;20052;-59
2022/08/07 11:25:14;;;;;;;0.75;0.50;;;;;;;29.78;40.08;99106.38;5071340;28;20443;-57
2022/08/07 11:28:05;;;;;;;0.63;0.50;;;;;;;29.80;40.30;99103.91;5092801;28;20629;-57
2022/08/07 11:30:44;;;;;;;0.95;0.60;;;;;;;29.78;40.28;99104.34;5091716;28;20051;-58
2022/08/07 11:33:42;;;;;;;1.13;0.70;;;;;;;29.79;40.30;99102.31;5092324;28;20040;-59
2022/08/07 11:36:42;;;;;;;0.70;0.60;;;;;;;29.80;40.23;99098.28;5092089;28;20427;-58
2022/08/07 11:39:19;;;;;;;0.70;0.60;;;;;;;29.80;40.14;99106.75;5090409;28;20091;-58
2022/08/07 11:41:57;;;;;;;0.77;0.60;;;;;;;29.77;40.32;99101.97;5090434;28;20044;-58
2022/08/07 11:44:44;;;;;;;0.82;0.70;;;;;;;29.80;40.35;99101.88;5092313;28;20040;-58
2022/08/07 11:47:39;;;;;;;0.85;0.60;;;;;;;29.80;40.37;99092.66;5090315;28;20052;-57
2022/08/07 11:50:34;;;;;;;1.05;0.70;;;;;;;29.81;40.37;99094.22;5091900;28;20055;-58
2022/08/07 11:53:30;;;;;;;0.75;0.60;;;;;;;29.79;40.31;99088.22;5090837;28;20145;-58
2022/08/07 11:56:35;;;;;;;0.82;0.68;;;;;;;29.80;40.36;99087.00;5092060;28;20052;-58
2022/08/07 11:59:22;;;;;;;0.85;0.60;;;;;;;29.80;40.03;99084.97;5089971;28;20043;-57
2022/08/07 12:01:57;;;;;;;0.75;0.60;;;;;;;29.79;40.36;99082.56;5091986;28;20048;-58
2022/08/07 12:04:48;;;;;;;1.10;0.60;;;;;;;29.79;40.43;99082.56;5091908;28;20101;-58